createdAt,value
2023-07-19T00:00:50.074Z,50.20
2023-07-19T00:03:24.395Z,50.13
2023-07-19T00:05:57.309Z,50.51
2023-07-19T00:08:30.265Z,50.65
2023-07-19T00:11:03.172Z,50.79
2023-07-19T00:13:44.924Z,50.30
2023-07-19T00:16:17.858Z,50.02
2023-07-19T00:18:55.602Z,49.92
2023-07-19T00:21:32.615Z,50.18
2023-07-19T00:24:11.070Z,50.70
2023-07-19T00:26:44.063Z,50.60
2023-07-19T00:29:17.136Z,51.08
2023-07-19T00:31:50.169Z,51.30
2023-07-19T00:34:24.452Z,51.06
2023-07-19T00:36:57.494Z,51.21
2023-07-19T00:39:30.501Z,50.81
2023-07-19T00:42:03.496Z,50.77
2023-07-19T00:44:36.398Z,51.00
2023-07-19T00:47:09.789Z,51.35
2023-07-19T00:49:45.421Z,50.75
2023-07-19T00:52:18.876Z,51.63
2023-07-19T00:54:51.638Z,50.81
2023-07-19T00:57:24.637Z,51.81
2023-07-19T00:59:57.685Z,52.47
2023-07-19T01:02:31.017Z,52.88
2023-07-19T01:05:08.526Z,53.31
2023-07-19T01:07:41.951Z,53.49
2023-07-19T01:10:15.316Z,53.72
2023-07-19T01:13:04.016Z,53.65
2023-07-19T01:15:37.329Z,54.07
2023-07-19T01:18:10.392Z,54.22
2023-07-19T01:20:45.809Z,54.35
2023-07-19T01:23:20.127Z,54.32
2023-07-19T01:25:57.130Z,54.65
2023-07-19T01:28:30.156Z,54.40
2023-07-19T01:31:06.419Z,54.52
2023-07-19T01:33:39.465Z,54.74
2023-07-19T01:36:12.329Z,54.84
2023-07-19T01:38:46.766Z,54.40
2023-07-19T01:41:20.509Z,54.60
2023-07-19T01:43:54.158Z,54.63
2023-07-19T01:46:26.889Z,53.63
2023-07-19T01:49:01.681Z,54.18
2023-07-19T01:51:34.612Z,53.97
2023-07-19T01:54:08.920Z,53.84
2023-07-19T01:56:42.192Z,54.02
2023-07-19T01:59:15.100Z,53.92
2023-07-19T02:01:48.963Z,54.18
2023-07-19T02:04:22.070Z,54.14
2023-07-19T02:06:55.083Z,54.16
2023-07-19T02:09:29.347Z,54.06
2023-07-19T02:12:02.758Z,54.12
2023-07-19T02:14:35.719Z,54.35
2023-07-19T02:17:08.889Z,54.34
2023-07-19T02:19:41.732Z,54.66
2023-07-19T02:22:16.902Z,54.72
2023-07-19T02:24:51.337Z,54.93
2023-07-19T02:27:24.371Z,54.91
2023-07-19T02:29:57.389Z,55.17
2023-07-19T02:32:32.136Z,55.41
2023-07-19T02:35:05.680Z,55.78
2023-07-19T02:37:38.316Z,55.18
2023-07-19T02:40:12.976Z,55.80
2023-07-19T02:42:45.985Z,56.19
2023-07-19T02:45:18.971Z,56.42
2023-07-19T02:47:52.029Z,56.52
2023-07-19T02:50:24.886Z,56.51
2023-07-19T02:52:57.791Z,56.60
2023-07-19T02:55:32.195Z,56.89
2023-07-19T02:58:05.056Z,57.07
2023-07-19T03:00:41.532Z,57.08
2023-07-19T03:03:15.121Z,57.33
2023-07-19T03:05:47.839Z,56.44
2023-07-19T03:08:20.842Z,57.19
2023-07-19T03:10:55.783Z,57.23
2023-07-19T03:13:28.726Z,57.36
2023-07-19T03:16:01.681Z,57.47
2023-07-19T03:18:34.588Z,57.66
2023-07-19T03:21:07.442Z,57.48
2023-07-19T03:23:40.361Z,57.62
2023-07-19T03:26:14.604Z,57.60
2023-07-19T03:28:47.633Z,57.27
2023-07-19T03:31:21.353Z,57.16
2023-07-19T03:33:54.347Z,56.83
2023-07-19T03:36:29.074Z,56.45
2023-07-19T03:39:01.900Z,56.26
2023-07-19T03:41:38.535Z,56.40
2023-07-19T03:44:12.182Z,56.68
2023-07-19T03:46:45.378Z,56.63
2023-07-19T03:49:18.481Z,56.06
2023-07-19T03:51:51.459Z,55.79
2023-07-19T03:54:25.958Z,55.92
2023-07-19T03:57:00.573Z,55.72
2023-07-19T03:59:34.022Z,55.77
2023-07-19T04:02:07.613Z,55.54
2023-07-19T04:04:40.596Z,55.40
2023-07-19T04:07:13.464Z,54.98
2023-07-19T04:09:46.362Z,54.98
2023-07-19T04:12:20.660Z,54.42
2023-07-19T04:14:53.811Z,54.36
2023-07-19T04:17:31.286Z,54.74
2023-07-19T04:20:04.807Z,55.14
2023-07-19T04:22:37.723Z,54.44
2023-07-19T04:25:11.979Z,54.53
2023-07-19T04:27:47.679Z,55.47
2023-07-19T04:30:20.845Z,56.13
2023-07-19T04:32:56.620Z,56.19
2023-07-19T04:35:29.687Z,56.22
2023-07-19T04:38:05.116Z,56.50
2023-07-19T04:40:38.220Z,56.32
2023-07-19T04:43:12.480Z,56.55
2023-07-19T04:45:45.986Z,56.29
2023-07-19T04:48:20.968Z,56.45
2023-07-19T04:50:54.556Z,56.84
2023-07-19T04:53:27.643Z,56.99
2023-07-19T04:56:02.982Z,55.82
2023-07-19T04:58:39.760Z,55.82
2023-07-19T05:01:13.597Z,55.85
2023-07-19T05:03:47.890Z,54.26
2023-07-19T05:06:21.106Z,52.95
2023-07-19T05:08:54.288Z,52.94
2023-07-19T05:11:27.405Z,52.23
2023-07-19T05:14:01.848Z,50.65
2023-07-19T05:16:35.651Z,49.85
2023-07-19T05:19:09.257Z,49.63
2023-07-19T05:21:42.370Z,48.54
2023-07-19T05:24:15.325Z,47.91
2023-07-19T05:26:48.628Z,46.91
2023-07-19T05:29:23.711Z,46.88
2023-07-19T05:31:56.787Z,47.39
2023-07-19T05:34:29.689Z,46.97
2023-07-19T05:37:04.819Z,46.65
2023-07-19T05:39:37.690Z,46.62
2023-07-19T05:42:10.756Z,46.04
2023-07-19T05:44:44.970Z,45.30
2023-07-19T05:47:18.358Z,45.21
2023-07-19T05:49:51.081Z,45.49
2023-07-19T05:52:23.956Z,43.96
2023-07-19T05:54:57.183Z,44.05
2023-07-19T05:57:31.971Z,44.21
2023-07-19T06:00:20.510Z,42.79
2023-07-19T06:02:55.934Z,41.96
2023-07-19T06:05:29.385Z,41.25
2023-07-19T06:08:18.333Z,40.54
2023-07-19T06:10:55.618Z,40.67
2023-07-19T06:13:28.700Z,40.82
2023-07-19T06:16:03.052Z,40.28
2023-07-19T06:18:36.057Z,38.33
2023-07-19T06:21:09.065Z,37.48
2023-07-19T06:23:42.630Z,37.11
2023-07-19T06:26:15.656Z,36.47
2023-07-19T06:28:48.594Z,36.30
2023-07-19T06:31:23.014Z,35.80
2023-07-19T06:33:56.695Z,35.31
2023-07-19T06:36:29.584Z,34.92
2023-07-19T06:39:02.480Z,34.66
2023-07-19T06:41:35.409Z,34.42
2023-07-19T06:44:08.341Z,34.74
2023-07-19T06:46:42.649Z,34.32
2023-07-19T06:49:15.801Z,33.95
2023-07-19T06:51:49.714Z,34.60
2023-07-19T06:54:22.572Z,33.89
2023-07-19T06:56:55.478Z,32.49
2023-07-19T06:59:29.540Z,32.10
2023-07-19T07:02:03.857Z,32.12
2023-07-19T07:04:36.926Z,31.06
2023-07-19T07:07:11.196Z,32.07
2023-07-19T07:09:44.450Z,31.29
2023-07-19T07:12:20.558Z,31.14
2023-07-19T07:14:53.388Z,31.88
2023-07-19T07:17:30.069Z,31.09
2023-07-19T07:20:03.140Z,31.31
2023-07-19T07:22:35.983Z,31.76
2023-07-19T07:25:09.267Z,31.35
2023-07-19T07:27:42.212Z,30.21
2023-07-19T07:30:15.204Z,30.64
2023-07-19T07:33:08.929Z,29.89
2023-07-19T07:35:45.986Z,29.35
2023-07-19T07:38:19.150Z,28.74
2023-07-19T07:40:52.067Z,28.29
2023-07-19T07:43:24.970Z,29.35
2023-07-19T07:45:58.004Z,28.97
2023-07-19T07:48:34.505Z,28.62
2023-07-19T07:51:07.601Z,29.14
2023-07-19T07:53:40.375Z,29.58
2023-07-19T07:56:17.571Z,27.87
2023-07-19T07:58:50.772Z,27.78
2023-07-19T08:01:24.117Z,27.02
2023-07-19T08:03:58.968Z,25.95
2023-07-19T08:06:32.053Z,25.55
2023-07-19T08:09:05.030Z,24.78
2023-07-19T08:11:37.980Z,25.75
2023-07-19T08:14:10.664Z,26.55
2023-07-19T08:16:43.779Z,26.06
2023-07-19T08:19:18.421Z,26.19
2023-07-19T08:21:51.496Z,26.59
2023-07-19T08:24:24.583Z,26.60
2023-07-19T08:27:00.493Z,26.61
2023-07-19T08:29:33.446Z,27.45
2023-07-19T08:32:06.681Z,27.62
2023-07-19T08:34:44.098Z,26.92
2023-07-19T08:37:17.015Z,26.43
2023-07-19T08:39:49.863Z,27.17
2023-07-19T08:42:22.931Z,26.62
2023-07-19T08:44:56.386Z,26.84
2023-07-19T08:47:30.324Z,26.28
2023-07-19T08:50:06.859Z,26.61
2023-07-19T08:52:51.137Z,27.22
2023-07-19T08:55:24.097Z,25.24
2023-07-19T08:57:57.370Z,23.75
2023-07-19T09:00:33.260Z,23.21
2023-07-19T09:03:06.433Z,21.81
2023-07-19T09:05:40.874Z,21.70
2023-07-19T09:08:14.234Z,21.92
2023-07-19T09:10:48.014Z,21.03
2023-07-19T09:13:21.203Z,21.14
2023-07-19T09:15:56.505Z,20.74
2023-07-19T09:18:31.282Z,21.16
2023-07-19T09:21:06.235Z,21.70
2023-07-19T09:23:39.838Z,21.60
2023-07-19T09:26:12.768Z,21.06
2023-07-19T09:28:45.873Z,19.83
2023-07-19T09:31:25.646Z,18.79
2023-07-19T09:33:59.136Z,18.81
2023-07-19T09:36:33.508Z,18.96
2023-07-19T09:39:07.643Z,18.71
2023-07-19T09:41:40.980Z,17.37
2023-07-19T09:44:16.652Z,19.32
2023-07-19T09:46:50.678Z,19.08
2023-07-19T09:49:24.551Z,19.41
2023-07-19T09:51:59.260Z,18.86
2023-07-19T09:54:34.089Z,18.66
2023-07-19T09:57:08.032Z,17.75
2023-07-19T09:59:45.856Z,18.05
2023-07-19T10:02:19.488Z,19.71
2023-07-19T10:04:53.014Z,20.93
2023-07-19T10:07:37.680Z,21.26
2023-07-19T10:10:18.793Z,22.37
2023-07-19T10:12:52.893Z,22.35
2023-07-19T10:15:25.913Z,21.24
2023-07-19T10:18:00.845Z,21.30
2023-07-19T10:20:36.030Z,20.76
2023-07-19T10:23:10.518Z,20.53
2023-07-19T10:25:48.149Z,20.17
2023-07-19T10:28:30.966Z,20.79
2023-07-19T10:31:27.308Z,21.09
2023-07-19T10:33:58.604Z,21.95
2023-07-19T10:36:31.819Z,21.34
2023-07-19T10:39:06.201Z,22.05
2023-07-19T10:41:39.122Z,22.98
2023-07-19T10:44:12.354Z,23.17
2023-07-19T10:46:48.418Z,23.11
2023-07-19T10:49:23.081Z,22.54
2023-07-19T10:51:57.600Z,23.08
2023-07-19T10:54:41.850Z,22.85
2023-07-19T10:57:23.764Z,23.08
2023-07-19T10:59:56.449Z,23.23
2023-07-19T11:02:30.124Z,23.14
2023-07-19T11:05:03.164Z,23.44
2023-07-19T11:07:36.493Z,23.47
2023-07-19T11:10:11.377Z,24.84
2023-07-19T11:12:44.977Z,25.70
2023-07-19T11:15:18.159Z,25.16
2023-07-19T11:17:53.854Z,24.50
2023-07-19T11:20:31.568Z,23.13
2023-07-19T11:23:07.410Z,22.41
2023-07-19T11:25:42.124Z,22.15
2023-07-19T11:28:35.552Z,22.17
2023-07-19T11:31:11.654Z,23.59
2023-07-19T11:33:50.232Z,23.15
2023-07-19T11:36:23.109Z,23.40
2023-07-19T11:38:56.450Z,22.87
2023-07-19T11:41:33.645Z,23.26
2023-07-19T11:44:06.683Z,24.00
2023-07-19T11:46:39.806Z,24.30
2023-07-19T11:49:12.896Z,24.27
2023-07-19T11:51:47.416Z,23.31
2023-07-19T11:54:20.393Z,23.26
2023-07-19T11:56:54.636Z,23.82
2023-07-19T11:59:27.588Z,24.75
2023-07-19T12:02:01.147Z,25.63
2023-07-19T12:04:34.440Z,25.28
2023-07-19T12:07:07.369Z,24.49
2023-07-19T12:09:40.395Z,24.04
2023-07-19T12:12:15.194Z,24.13
2023-07-19T12:14:48.038Z,24.43
2023-07-19T12:17:20.761Z,24.32
2023-07-19T12:19:53.683Z,25.05
2023-07-19T12:22:26.635Z,25.57
2023-07-19T12:25:05.207Z,25.63
2023-07-19T12:27:47.902Z,26.20
2023-07-19T12:30:23.240Z,25.75
2023-07-19T12:32:58.449Z,25.50
2023-07-19T12:35:34.612Z,25.12
2023-07-19T12:38:10.517Z,25.67
2023-07-19T12:40:46.739Z,25.63
2023-07-19T12:43:21.443Z,25.50
2023-07-19T12:45:58.558Z,25.89
2023-07-19T12:48:36.748Z,26.08
2023-07-19T12:51:10.257Z,26.56
2023-07-19T12:53:43.628Z,26.59
2023-07-19T12:56:16.564Z,26.68
2023-07-19T12:58:52.382Z,26.03
2023-07-19T13:01:25.555Z,26.47
2023-07-19T13:04:00.647Z,27.01
2023-07-19T13:06:35.221Z,27.36
2023-07-19T13:09:10.874Z,26.93
2023-07-19T13:11:43.845Z,26.26
2023-07-19T13:14:18.124Z,26.76
2023-07-19T13:17:01.839Z,26.02
2023-07-19T13:19:43.737Z,26.16
2023-07-19T13:22:17.506Z,26.48
2023-07-19T13:24:50.475Z,26.98
2023-07-19T13:27:23.416Z,27.62
2023-07-19T13:29:58.311Z,28.16
2023-07-19T13:32:33.708Z,27.50
2023-07-19T13:35:13.394Z,26.25
2023-07-19T13:40:22.485Z,25.30
2023-07-19T13:42:57.211Z,25.19
2023-07-19T13:45:32.096Z,26.59
2023-07-19T13:48:05.366Z,26.71
2023-07-19T13:50:38.631Z,26.66
2023-07-19T13:53:11.613Z,27.30
2023-07-19T13:55:45.320Z,27.11
2023-07-19T13:58:18.257Z,27.34
2023-07-19T14:00:55.366Z,27.07
2023-07-19T14:03:30.318Z,28.34
2023-07-19T14:06:03.366Z,28.02
2023-07-19T14:08:36.245Z,27.21
2023-07-19T14:11:08.968Z,27.28
2023-07-19T14:13:55.158Z,25.96
2023-07-19T14:16:34.952Z,25.93
2023-07-19T14:19:08.924Z,26.24
2023-07-19T14:21:42.687Z,26.89
2023-07-19T14:24:15.616Z,25.48
2023-07-19T14:26:48.597Z,25.16
2023-07-19T14:29:21.805Z,25.29
2023-07-19T14:31:56.143Z,25.40
2023-07-19T14:34:30.288Z,25.69
2023-07-19T14:37:03.253Z,25.19
2023-07-19T14:39:36.143Z,25.91
2023-07-19T14:42:10.399Z,25.83
2023-07-19T14:44:47.951Z,25.47
2023-07-19T14:47:24.983Z,25.26
2023-07-19T14:49:59.866Z,25.63
2023-07-19T14:52:33.262Z,26.00
2023-07-19T14:55:17.876Z,25.49
2023-07-19T14:57:54.262Z,25.41
2023-07-19T15:06:00.065Z,25.10
2023-07-19T15:08:34.740Z,25.47
2023-07-19T15:11:11.546Z,25.76
2023-07-19T15:13:46.088Z,26.31
2023-07-19T15:16:19.063Z,26.39
2023-07-19T15:18:53.561Z,26.04
2023-07-19T15:21:26.629Z,25.81
2023-07-19T15:23:59.634Z,25.97
2023-07-19T15:26:35.720Z,25.69
2023-07-19T15:29:12.193Z,25.97
2023-07-19T15:31:45.370Z,26.12
2023-07-19T15:34:21.258Z,25.76
2023-07-19T15:36:58.950Z,25.68
2023-07-19T15:39:35.981Z,25.69
2023-07-19T15:42:11.663Z,25.98
2023-07-19T15:44:47.796Z,26.00
2023-07-19T15:47:25.971Z,25.97
2023-07-19T15:50:22.895Z,25.88
2023-07-19T15:52:59.037Z,25.67
2023-07-19T15:55:32.138Z,25.61
2023-07-19T15:58:04.825Z,25.82
2023-07-19T16:00:37.848Z,25.72
2023-07-19T16:03:10.933Z,26.12
2023-07-19T16:05:45.302Z,26.19
2023-07-19T16:08:18.284Z,26.23
2023-07-19T16:10:51.307Z,25.90
2023-07-19T16:13:24.451Z,25.77
2023-07-19T16:15:58.418Z,26.05
2023-07-19T16:18:31.529Z,25.80
2023-07-19T16:21:07.841Z,26.10
2023-07-19T16:23:42.552Z,26.02
2023-07-19T16:26:15.701Z,26.20
2023-07-19T16:28:51.321Z,26.46
2023-07-19T16:31:33.884Z,26.12
2023-07-19T16:34:09.743Z,25.96
2023-07-19T16:36:44.016Z,26.72
2023-07-19T16:39:18.110Z,26.64
2023-07-19T16:41:53.530Z,27.11
2023-07-19T16:44:31.032Z,27.24
2023-07-19T16:47:06.128Z,27.70
2023-07-19T16:49:39.143Z,28.11
2023-07-19T16:52:19.066Z,27.79
2023-07-19T16:54:57.570Z,28.17
2023-07-19T16:57:31.547Z,27.80
2023-07-19T17:00:16.413Z,28.09
2023-07-19T17:03:01.222Z,28.08
2023-07-19T17:05:34.459Z,28.39
2023-07-19T17:08:11.182Z,28.43
2023-07-19T17:10:45.202Z,28.80
2023-07-19T17:13:24.156Z,28.58
2023-07-19T17:16:02.065Z,28.86
2023-07-19T17:19:14.661Z,28.56
2023-07-19T17:21:59.425Z,29.21
2023-07-19T17:24:43.694Z,29.14
2023-07-19T17:27:16.721Z,29.61
2023-07-19T17:29:49.363Z,29.18
2023-07-19T17:32:22.397Z,29.21
2023-07-19T17:34:55.443Z,29.40
2023-07-19T17:37:28.152Z,29.14
2023-07-19T17:40:02.490Z,29.18
2023-07-19T17:42:35.650Z,29.40
2023-07-19T17:45:10.162Z,29.22
2023-07-19T17:47:43.444Z,29.67
2023-07-19T17:50:16.364Z,30.13
2023-07-19T17:52:49.243Z,30.42
2023-07-19T17:55:23.650Z,31.10
2023-07-19T17:57:57.824Z,31.20
2023-07-19T18:00:33.373Z,31.34
2023-07-19T18:03:06.565Z,32.22
2023-07-19T18:05:39.716Z,31.34
2023-07-19T18:08:22.335Z,32.40
2023-07-19T18:11:06.626Z,32.88
2023-07-19T18:13:57.149Z,32.82
2023-07-19T18:16:34.162Z,33.05
2023-07-19T18:19:10.383Z,33.78
2023-07-19T18:21:53.939Z,33.88
2023-07-19T18:24:35.663Z,34.07
2023-07-19T18:27:11.971Z,34.75
2023-07-19T18:29:46.297Z,34.57
2023-07-19T18:32:20.540Z,34.89
2023-07-19T18:34:55.797Z,35.35
2023-07-19T18:37:30.781Z,35.65
2023-07-19T18:40:10.434Z,35.70
2023-07-19T18:42:46.223Z,35.75
2023-07-19T18:45:19.333Z,36.27
2023-07-19T18:47:52.202Z,35.56
2023-07-19T18:50:25.221Z,36.43
2023-07-19T18:52:57.978Z,35.51
2023-07-19T18:55:30.885Z,36.31
2023-07-19T18:58:05.254Z,36.89
2023-07-19T19:00:38.303Z,37.31
2023-07-19T19:03:11.555Z,37.52
2023-07-19T19:05:56.269Z,38.29
2023-07-19T19:08:33.167Z,38.05
2023-07-19T19:11:08.568Z,38.45
2023-07-19T19:13:48.775Z,38.65
2023-07-19T19:16:25.544Z,38.97
2023-07-19T19:19:00.921Z,39.31
2023-07-19T19:21:36.724Z,39.61
2023-07-19T19:24:12.467Z,39.57
2023-07-19T19:26:49.772Z,40.03
2023-07-19T19:29:24.287Z,39.91
2023-07-19T19:31:57.203Z,40.11
2023-07-19T19:34:30.177Z,40.36
2023-07-19T19:37:05.819Z,40.35
2023-07-19T19:39:40.581Z,40.47
2023-07-19T19:42:16.575Z,40.70
2023-07-19T19:44:55.377Z,40.81
2023-07-19T19:47:28.357Z,41.27
2023-07-19T19:50:04.578Z,41.08
2023-07-19T19:52:37.631Z,41.52
2023-07-19T19:55:10.729Z,41.62
2023-07-19T19:57:43.755Z,41.38
2023-07-19T20:00:24.206Z,41.62
2023-07-19T20:08:20.616Z,41.85
2023-07-19T20:11:10.852Z,42.03
2023-07-19T20:13:43.944Z,41.94
2023-07-19T20:16:18.412Z,41.89
2023-07-19T20:18:54.186Z,41.83
2023-07-19T20:21:33.634Z,41.69
2023-07-19T20:24:10.601Z,41.75
2023-07-19T20:26:57.562Z,42.13
2023-07-19T20:30:01.732Z,42.14
2023-07-19T20:35:03.039Z,42.28
2023-07-19T20:37:38.025Z,42.23
2023-07-19T20:42:49.892Z,42.86
2023-07-19T20:45:26.374Z,42.88
2023-07-19T20:48:03.603Z,43.34
2023-07-19T20:50:36.931Z,43.23
2023-07-19T20:53:09.677Z,42.69
2023-07-19T20:55:42.549Z,43.41
2023-07-19T20:58:15.547Z,43.37
2023-07-19T21:00:48.601Z,43.44
2023-07-19T21:03:23.135Z,43.56
2023-07-19T21:05:56.145Z,43.88
2023-07-19T21:08:30.127Z,43.85
2023-07-19T21:11:03.102Z,43.74
2023-07-19T21:13:36.118Z,43.76
2023-07-19T21:16:58.092Z,43.97
2023-07-19T21:19:34.889Z,43.82
2023-07-19T21:22:07.862Z,43.99
2023-07-19T21:25:06.676Z,43.96
2023-07-19T21:27:35.932Z,43.98
2023-07-19T21:30:10.061Z,43.99
2023-07-19T21:32:43.489Z,44.15
2023-07-19T21:35:17.849Z,44.23
2023-07-19T21:37:50.848Z,44.15
2023-07-19T21:40:23.901Z,44.18
2023-07-19T21:43:04.158Z,44.43
2023-07-19T21:45:39.987Z,44.71
2023-07-19T21:48:13.118Z,44.78
2023-07-19T21:50:50.558Z,44.42
2023-07-19T21:53:27.382Z,44.44
2023-07-19T21:56:00.262Z,44.95
2023-07-19T21:58:33.132Z,44.88
2023-07-19T22:01:12.120Z,45.07
2023-07-19T22:03:45.100Z,44.93
2023-07-19T22:06:19.529Z,45.07
2023-07-19T22:08:52.573Z,45.59
2023-07-19T22:11:25.569Z,45.50
2023-07-19T22:13:59.633Z,45.85
2023-07-19T22:16:32.561Z,45.58
2023-07-19T22:19:06.245Z,45.84
2023-07-19T22:21:40.595Z,45.90
2023-07-19T22:24:13.470Z,46.15
2023-07-19T22:26:46.451Z,46.53
2023-07-19T22:29:19.643Z,46.63
2023-07-19T22:31:52.635Z,46.40
2023-07-19T22:34:25.606Z,46.65
2023-07-19T22:36:59.902Z,47.22
2023-07-19T22:39:32.819Z,47.30
2023-07-19T22:42:06.113Z,47.54
2023-07-19T22:44:38.984Z,47.44
2023-07-19T22:47:12.056Z,47.75
2023-07-19T22:49:46.346Z,47.79
2023-07-19T22:52:21.647Z,47.95
2023-07-19T22:54:54.693Z,48.10
2023-07-19T22:57:27.613Z,48.15
2023-07-19T23:00:00.639Z,48.16
2023-07-19T23:02:33.650Z,48.46
2023-07-19T23:05:08.910Z,48.69
2023-07-19T23:07:43.465Z,49.26
2023-07-19T23:10:17.299Z,49.17
2023-07-19T23:12:51.844Z,49.18
2023-07-19T23:15:25.131Z,49.42
2023-07-19T23:17:59.580Z,49.64
2023-07-19T23:20:32.487Z,49.73
2023-07-19T23:23:06.882Z,49.79
2023-07-19T23:25:39.866Z,49.83
2023-07-19T23:28:12.814Z,49.82
2023-07-19T23:30:45.985Z,49.34
2023-07-19T23:33:19.191Z,49.92
2023-07-19T23:35:52.120Z,50.36
2023-07-19T23:38:26.654Z,50.32
2023-07-19T23:40:59.725Z,50.19
2023-07-19T23:43:32.649Z,50.11
2023-07-19T23:46:06.027Z,49.96
2023-07-19T23:48:38.734Z,49.38
2023-07-19T23:51:12.061Z,49.47
2023-07-19T23:53:46.358Z,50.42
2023-07-19T23:56:19.282Z,50.41
2023-07-19T23:58:52.554Z,50.65
